Apalachin, New York
Current Conditions -  °F | °C
As of 5:53 PM on Wednesday 22 Oct 2014 (Local Time) from KBGM Reporting Station
Light Rain Light Rain  
Wind Chill: 41°   Ceiling: 600
Heat Index: 47°   Visibility: 5mi
Dew Point: 45°   Wind: 14mph
Humidity: 93%   Direction: 340°NNW
Pressure: 30.03"   Gusts: NA
Location:  42.07°N, 76.15°W
Report Text: KBGM 222153Z 34012KT 5SM -RA BR OVC006 08/07 A3003 RMK AO2 CIG 004V010 SLP176 P0000 T00830072
Loading
Personal Weather Stations






























Interactive Weather Map New forecast layout! Learn more

10-Day Weather Forecast

Advertisements
Track Severe Weather on mobile